createdAt,value
2022-11-21T02:02:12.154Z,100.00
2022-11-21T02:04:40.128Z,100.00
2022-11-21T02:07:09.244Z,100.00
2022-11-21T02:09:39.994Z,100.00
2022-11-21T02:12:31.114Z,100.00
2022-11-21T02:14:59.053Z,100.00
2022-11-21T02:17:29.601Z,100.00
2022-11-21T02:20:08.106Z,100.00
2022-11-21T02:22:41.284Z,100.00
2022-11-21T02:25:12.876Z,100.00
2022-11-21T02:27:40.610Z,100.00
2022-11-21T02:30:09.433Z,100.00
2022-11-21T02:32:42.437Z,100.00
2022-11-21T02:35:10.399Z,100.00
2022-11-21T02:37:38.439Z,100.00
2022-11-21T02:40:18.585Z,100.00
2022-11-21T02:43:00.697Z,100.00
2022-11-21T02:45:35.087Z,100.00
2022-11-21T02:48:04.444Z,100.00
2022-11-21T02:50:34.299Z,100.00
2022-11-21T02:53:02.812Z,100.00
2022-11-21T02:55:30.905Z,100.00
2022-11-21T02:58:03.198Z,100.00
2022-11-21T03:00:33.718Z,100.00
2022-11-21T03:03:01.909Z,100.00
2022-11-21T03:05:29.915Z,100.00
2022-11-21T03:07:58.719Z,100.00
2022-11-21T03:10:26.756Z,100.00
2022-11-21T03:13:01.503Z,100.00
2022-11-21T03:15:31.798Z,100.00
2022-11-21T03:18:01.425Z,100.00
2022-11-21T03:20:30.772Z,100.00
2022-11-21T03:23:00.122Z,100.00
2022-11-21T03:25:29.015Z,100.00
2022-11-21T03:28:05.950Z,100.00
2022-11-21T03:30:34.535Z,100.00
2022-11-21T03:37:12.514Z,100.00
2022-11-21T03:40:13.713Z,100.00
2022-11-21T03:43:16.118Z,100.00
2022-11-21T03:46:54.669Z,100.00
2022-11-21T03:52:54.936Z,100.00
2022-11-21T03:55:34.132Z,100.00
2022-11-21T04:01:03.202Z,100.00
2022-11-21T04:03:31.556Z,100.00
2022-11-21T04:06:00.091Z,100.00
2022-11-21T04:08:32.930Z,100.00
2022-11-21T04:11:00.818Z,100.00
2022-11-21T04:13:29.334Z,100.00
2022-11-21T04:15:57.211Z,100.00
2022-11-21T04:18:26.933Z,100.00
2022-11-21T04:21:03.265Z,100.00
2022-11-21T04:23:31.710Z,100.00
2022-11-21T04:26:00.179Z,100.00
2022-11-21T04:28:28.272Z,100.00
2022-11-21T04:30:58.326Z,100.00
2022-11-21T04:33:28.589Z,100.00
2022-11-21T04:35:56.633Z,100.00
2022-11-21T04:38:24.648Z,100.00
2022-11-21T04:40:52.718Z,100.00
2022-11-21T04:43:24.211Z,100.00
2022-11-21T04:45:52.624Z,100.00
2022-11-21T04:48:21.173Z,100.00
2022-11-21T04:50:49.166Z,100.00
2022-11-21T04:53:17.223Z,100.00
2022-11-21T04:55:51.160Z,100.00
2022-11-21T04:58:19.341Z,100.00
2022-11-21T05:00:47.733Z,100.00
2022-11-21T05:03:16.887Z,100.00
2022-11-21T05:05:45.057Z,100.00
2022-11-21T05:08:13.548Z,100.00
2022-11-21T05:10:59.957Z,100.00
2022-11-21T05:13:28.548Z,100.00
2022-11-21T05:16:00.690Z,100.00
2022-11-21T05:18:28.966Z,100.00
2022-11-21T05:20:57.227Z,100.00
2022-11-21T05:23:25.388Z,100.00
2022-11-21T05:25:53.772Z,100.00
2022-11-21T05:28:22.106Z,100.00
2022-11-21T05:30:50.031Z,100.00
2022-11-21T05:33:18.177Z,100.00
2022-11-21T05:35:48.489Z,100.00
2022-11-21T05:38:16.473Z,100.00
2022-11-21T05:40:44.444Z,100.00
2022-11-21T05:43:31.593Z,100.00
2022-11-21T05:45:59.653Z,100.00
2022-11-21T05:48:27.975Z,100.00
2022-11-21T05:50:56.381Z,100.00
2022-11-21T05:53:24.721Z,100.00
2022-11-21T05:55:52.810Z,100.00
2022-11-21T05:58:20.820Z,100.00
2022-11-21T06:00:48.770Z,100.00
2022-11-21T06:03:28.736Z,100.00
2022-11-21T06:06:07.800Z,100.00
2022-11-21T06:08:40.377Z,100.00
2022-11-21T06:11:09.125Z,100.00
2022-11-21T06:13:38.184Z,100.00
2022-11-21T06:16:11.544Z,100.00
2022-11-21T06:19:00.190Z,100.00
2022-11-21T06:21:29.239Z,100.00
2022-11-21T06:23:58.255Z,100.00
2022-11-21T06:26:26.987Z,100.00
2022-11-21T06:28:55.175Z,100.00
2022-11-21T06:31:24.590Z,100.00
2022-11-21T06:33:57.259Z,100.00
2022-11-21T06:36:25.837Z,100.00
2022-11-21T06:38:54.849Z,100.00
2022-11-21T06:41:24.781Z,100.00
2022-11-21T06:43:52.928Z,100.00
2022-11-21T06:46:23.197Z,100.00
2022-11-21T06:48:51.168Z,100.00
2022-11-21T06:51:20.415Z,100.00
2022-11-21T06:53:49.187Z,100.00
2022-11-21T06:56:17.152Z,100.00
2022-11-21T06:58:45.208Z,100.00
2022-11-21T07:01:13.711Z,100.00
2022-11-21T07:03:41.592Z,100.00
2022-11-21T07:06:10.174Z,100.00
2022-11-21T07:08:40.925Z,100.00
2022-11-21T07:11:24.526Z,100.00
2022-11-21T10:56:26.584Z,100.00
2022-11-21T10:58:56.253Z,100.00
2022-11-21T11:01:32.890Z,100.00
2022-11-21T11:07:00.385Z,100.00
2022-11-21T11:09:35.071Z,100.00
2022-11-21T11:12:24.190Z,100.00
2022-11-21T11:14:53.338Z,100.00
2022-11-21T11:17:31.601Z,100.00
2022-11-21T11:20:03.441Z,100.00
2022-11-21T11:22:31.499Z,100.00
2022-11-21T11:25:01.034Z,100.00
2022-11-21T11:27:32.169Z,100.00
2022-11-21T11:30:00.540Z,100.00
2022-11-21T11:32:28.435Z,100.00
2022-11-21T11:35:01.442Z,100.00
2022-11-21T11:37:40.315Z,100.00
2022-11-21T11:40:21.288Z,100.00
2022-11-21T19:46:13.978Z,100.00
2022-11-21T19:48:44.057Z,100.00
2022-11-21T19:51:11.940Z,100.00
2022-11-21T19:53:39.962Z,100.00
2022-11-21T19:56:11.149Z,100.00
2022-11-21T19:58:39.712Z,100.00
2022-11-21T20:01:08.129Z,100.00
2022-11-21T20:03:35.955Z,100.00
2022-11-21T20:06:05.412Z,100.00
2022-11-21T20:08:33.864Z,100.00
2022-11-21T20:11:11.786Z,100.00
2022-11-21T20:13:40.652Z,100.00
2022-11-21T20:16:20.784Z,100.00
2022-11-21T20:18:50.903Z,100.00
2022-11-21T20:21:19.023Z,100.00
2022-11-21T20:23:47.048Z,100.00
2022-11-21T20:26:15.529Z,100.00
2022-11-21T20:28:43.256Z,100.00
2022-11-21T20:31:11.813Z,100.00
2022-11-21T20:33:40.833Z,100.00
2022-11-21T20:36:10.644Z,100.00
2022-11-21T20:38:38.878Z,100.00
2022-11-21T20:41:06.514Z,100.00
2022-11-21T20:44:14.387Z,100.00
2022-11-21T20:46:22.571Z,100.00
2022-11-21T20:48:50.557Z,100.00
2022-11-21T20:52:49.883Z,100.00
2022-11-21T20:54:06.016Z,100.00
2022-11-21T20:56:35.985Z,100.00
2022-11-21T20:59:04.708Z,100.00
2022-11-21T21:01:32.853Z,100.00
2022-11-21T21:04:00.650Z,100.00
2022-11-21T21:06:28.521Z,100.00
2022-11-21T21:08:57.069Z,100.00
2022-11-21T21:14:13.322Z,100.00
2022-11-21T21:16:41.831Z,100.00
2022-11-21T21:19:11.890Z,100.00
2022-11-21T21:21:41.879Z,100.00
2022-11-21T21:24:11.222Z,100.00
2022-11-21T21:26:45.914Z,100.00
2022-11-21T21:29:16.700Z,100.00
2022-11-21T21:31:50.636Z,100.00
2022-11-21T21:34:20.254Z,99.44
2022-11-21T21:36:51.174Z,98.99
2022-11-21T21:39:19.172Z,99.05
2022-11-21T21:41:47.930Z,99.38
2022-11-21T21:44:16.145Z,98.95
2022-11-21T21:46:45.091Z,99.04
2022-11-21T21:49:13.441Z,99.05
2022-11-21T21:51:42.261Z,99.44
2022-11-21T21:54:17.109Z,99.88
2022-11-21T21:56:47.212Z,100.00
2022-11-21T21:59:15.244Z,100.00
2022-11-21T22:01:43.247Z,99.89
2022-11-21T22:04:12.183Z,99.55
2022-11-21T22:06:43.572Z,100.00
2022-11-21T22:09:13.204Z,100.00
2022-11-21T22:11:41.235Z,100.00
2022-11-21T22:14:14.149Z,100.00
2022-11-21T22:16:43.468Z,100.00
2022-11-21T22:19:11.833Z,100.00
2022-11-21T22:21:39.539Z,100.00
2022-11-21T22:24:25.992Z,100.00
2022-11-21T22:26:54.714Z,100.00
2022-11-21T22:29:22.693Z,100.00
2022-11-21T22:31:51.063Z,100.00
2022-11-21T22:34:19.045Z,100.00
2022-11-21T22:36:46.984Z,100.00
2022-11-21T22:39:15.831Z,100.00
2022-11-21T22:41:43.754Z,100.00
2022-11-21T22:44:14.623Z,100.00
2022-11-21T22:46:42.698Z,100.00
2022-11-21T22:49:10.388Z,100.00
2022-11-21T22:51:38.387Z,100.00
2022-11-21T22:54:06.124Z,100.00
2022-11-21T22:56:34.079Z,100.00
2022-11-21T22:59:21.714Z,100.00
2022-11-21T23:01:50.052Z,100.00
2022-11-21T23:04:18.144Z,100.00
2022-11-21T23:06:46.492Z,100.00
2022-11-21T23:09:14.188Z,100.00
2022-11-21T23:11:42.100Z,100.00
2022-11-21T23:14:09.975Z,100.00
2022-11-21T23:16:38.755Z,100.00
2022-11-21T23:19:06.572Z,100.00
2022-11-21T23:21:34.860Z,100.00
2022-11-21T23:24:03.501Z,100.00
2022-11-21T23:26:32.942Z,100.00
2022-11-21T23:29:06.683Z,100.00
2022-11-21T23:31:37.385Z,100.00
2022-11-21T23:34:05.511Z,100.00
2022-11-21T23:36:33.183Z,100.00
2022-11-21T23:39:01.045Z,100.00
2022-11-21T23:41:28.950Z,100.00
2022-11-21T23:43:56.900Z,100.00
2022-11-21T23:46:24.744Z,100.00
2022-11-21T23:48:53.627Z,100.00
2022-11-21T23:51:21.297Z,100.00
2022-11-21T23:53:50.308Z,100.00
2022-11-21T23:56:18.869Z,100.00
2022-11-21T23:58:46.557Z,100.00
